sensor_id;sensor_type;location;lat;lon;timestamp;pressure;altitude;pressure_sealevel;temperature;humidity
28008;BME280;15333;50.010;20.020;2023-05-25T00:01:16;99269.94;;;12.79;100.00
28008;BME280;15333;50.010;20.020;2023-05-25T00:04:17;99267.38;;;12.77;100.00
28008;BME280;15333;50.010;20.020;2023-05-25T00:07:20;99263.97;;;12.75;100.00
28008;BME280;15333;50.010;20.020;2023-05-25T00:10:21;99262.22;;;12.63;100.00
28008;BME280;15333;50.010;20.020;2023-05-25T00:13:21;99262.59;;;12.70;100.00
28008;BME280;15333;50.010;20.020;2023-05-25T00:16:23;99272.50;;;12.69;100.00
28008;BME280;15333;50.010;20.020;2023-05-25T00:19:23;99275.31;;;12.79;100.00
28008;BME280;15333;50.010;20.020;2023-05-25T00:22:24;99268.34;;;12.76;100.00
28008;BME280;15333;50.010;20.020;2023-05-25T00:25:28;99273.25;;;12.71;100.00
28008;BME280;15333;50.010;20.020;2023-05-25T00:28:29;99279.91;;;12.66;100.00
28008;BME280;15333;50.010;20.020;2023-05-25T00:31:30;99283.53;;;12.53;100.00
28008;BME280;15333;50.010;20.020;2023-05-25T00:34:36;99280.16;;;12.63;100.00
28008;BME280;15333;50.010;20.020;2023-05-25T00:37:37;99277.75;;;12.71;100.00
28008;BME280;15333;50.010;20.020;2023-05-25T00:40:39;99280.53;;;12.69;100.00
28008;BME280;15333;50.010;20.020;2023-05-25T00:43:40;99279.41;;;12.61;100.00
28008;BME280;15333;50.010;20.020;2023-05-25T00:46:46;99283.97;;;12.71;100.00
28008;BME280;15333;50.010;20.020;2023-05-25T00:49:48;99283.91;;;12.49;100.00
28008;BME280;15333;50.010;20.020;2023-05-25T00:52:50;99283.31;;;12.57;100.00
28008;BME280;15333;50.010;20.020;2023-05-25T00:56:17;99288.78;;;12.55;100.00
28008;BME280;15333;50.010;20.020;2023-05-25T01:05:49;99281.03;;;12.63;100.00
28008;BME280;15333;50.010;20.020;2023-05-25T01:08:53;99286.09;;;12.55;100.00
28008;BME280;15333;50.010;20.020;2023-05-25T01:11:56;99288.72;;;12.44;100.00
28008;BME280;15333;50.010;20.020;2023-05-25T01:15:00;99285.66;;;12.37;100.00
28008;BME280;15333;50.010;20.020;2023-05-25T01:18:01;99284.34;;;12.43;100.00
28008;BME280;15333;50.010;20.020;2023-05-25T01:21:08;99276.03;;;12.35;100.00
28008;BME280;15333;50.010;20.020;2023-05-25T01:24:20;99276.25;;;12.32;100.00
28008;BME280;15333;50.010;20.020;2023-05-25T01:27:32;99283.94;;;12.36;100.00
28008;BME280;15333;50.010;20.020;2023-05-25T01:30:36;99290.41;;;12.34;100.00
28008;BME280;15333;50.010;20.020;2023-05-25T01:33:38;99277.75;;;12.36;100.00
28008;BME280;15333;50.010;20.020;2023-05-25T01:36:39;99280.94;;;12.41;100.00
28008;BME280;15333;50.010;20.020;2023-05-25T01:39:40;99286.91;;;12.44;100.00
28008;BME280;15333;50.010;20.020;2023-05-25T01:42:41;99284.75;;;12.49;100.00
28008;BME280;15333;50.010;20.020;2023-05-25T01:45:42;99292.75;;;12.38;100.00
28008;BME280;15333;50.010;20.020;2023-05-25T01:49:01;99289.72;;;12.43;100.00
28008;BME280;15333;50.010;20.020;2023-05-25T01:52:17;99292.91;;;12.48;100.00
28008;BME280;15333;50.010;20.020;2023-05-25T01:55:18;99292.44;;;12.54;100.00
28008;BME280;15333;50.010;20.020;2023-05-25T01:58:21;99290.56;;;12.43;100.00
28008;BME280;15333;50.010;20.020;2023-05-25T02:01:23;99292.44;;;12.54;100.00
28008;BME280;15333;50.010;20.020;2023-05-25T02:04:25;99280.94;;;12.41;100.00
28008;BME280;15333;50.010;20.020;2023-05-25T02:07:28;99283.66;;;12.52;100.00
28008;BME280;15333;50.010;20.020;2023-05-25T02:10:29;99279.31;;;12.38;100.00
28008;BME280;15333;50.010;20.020;2023-05-25T02:13:30;99284.41;;;12.54;100.00
28008;BME280;15333;50.010;20.020;2023-05-25T02:16:31;99284.09;;;12.46;100.00
28008;BME280;15333;50.010;20.020;2023-05-25T02:19:34;99285.81;;;12.47;100.00
28008;BME280;15333;50.010;20.020;2023-05-25T02:22:35;99280.47;;;12.47;100.00
28008;BME280;15333;50.010;20.020;2023-05-25T02:25:37;99277.03;;;12.45;100.00
28008;BME280;15333;50.010;20.020;2023-05-25T02:28:38;99267.72;;;12.38;100.00
28008;BME280;15333;50.010;20.020;2023-05-25T02:31:39;99264.66;;;12.31;100.00
28008;BME280;15333;50.010;20.020;2023-05-25T02:34:40;99270.41;;;12.38;100.00
28008;BME280;15333;50.010;20.020;2023-05-25T02:37:40;99269.41;;;12.28;100.00
28008;BME280;15333;50.010;20.020;2023-05-25T02:40:42;99266.31;;;12.21;100.00
28008;BME280;15333;50.010;20.020;2023-05-25T02:43:43;99264.72;;;12.19;100.00
28008;BME280;15333;50.010;20.020;2023-05-25T02:46:44;99267.69;;;12.27;100.00
28008;BME280;15333;50.010;20.020;2023-05-25T02:49:46;99265.97;;;12.26;100.00
28008;BME280;15333;50.010;20.020;2023-05-25T02:52:47;99258.66;;;12.28;100.00
28008;BME280;15333;50.010;20.020;2023-05-25T02:55:47;99253.94;;;12.07;100.00
28008;BME280;15333;50.010;20.020;2023-05-25T02:58:52;99265.78;;;12.16;100.00
28008;BME280;15333;50.010;20.020;2023-05-25T03:02:06;99265.19;;;12.12;100.00
28008;BME280;15333;50.010;20.020;2023-05-25T03:05:07;99262.66;;;11.98;100.00
28008;BME280;15333;50.010;20.020;2023-05-25T03:08:09;99261.75;;;12.10;100.00
28008;BME280;15333;50.010;20.020;2023-05-25T03:11:11;99267.84;;;12.12;100.00
28008;BME280;15333;50.010;20.020;2023-05-25T03:14:12;99269.28;;;12.05;100.00
28008;BME280;15333;50.010;20.020;2023-05-25T03:17:15;99273.34;;;12.11;100.00
28008;BME280;15333;50.010;20.020;2023-05-25T03:20:17;99268.31;;;12.06;100.00
28008;BME280;15333;50.010;20.020;2023-05-25T03:23:21;99268.22;;;11.95;100.00
28008;BME280;15333;50.010;20.020;2023-05-25T03:26:25;99275.97;;;12.00;100.00
28008;BME280;15333;50.010;20.020;2023-05-25T03:29:27;99279.63;;;11.99;100.00
28008;BME280;15333;50.010;20.020;2023-05-25T03:32:29;99285.28;;;11.94;100.00
28008;BME280;15333;50.010;20.020;2023-05-25T03:35:31;99287.75;;;11.97;100.00
28008;BME280;15333;50.010;20.020;2023-05-25T03:38:31;99282.81;;;12.04;100.00
28008;BME280;15333;50.010;20.020;2023-05-25T03:41:33;99280.47;;;11.99;100.00
28008;BME280;15333;50.010;20.020;2023-05-25T03:44:33;99286.69;;;12.24;100.00
28008;BME280;15333;50.010;20.020;2023-05-25T03:47:35;99290.91;;;12.15;100.00
28008;BME280;15333;50.010;20.020;2023-05-25T03:50:36;99289.31;;;12.12;100.00
28008;BME280;15333;50.010;20.020;2023-05-25T03:53:39;99297.22;;;11.90;100.00
28008;BME280;15333;50.010;20.020;2023-05-25T03:56:41;99300.66;;;11.92;100.00
28008;BME280;15333;50.010;20.020;2023-05-25T03:59:42;99293.75;;;12.01;100.00
28008;BME280;15333;50.010;20.020;2023-05-25T04:02:43;99301.19;;;11.97;100.00
28008;BME280;15333;50.010;20.020;2023-05-25T04:05:44;99305.34;;;12.01;100.00
28008;BME280;15333;50.010;20.020;2023-05-25T04:08:45;99307.44;;;12.22;100.00
28008;BME280;15333;50.010;20.020;2023-05-25T04:11:47;99303.81;;;12.10;100.00
28008;BME280;15333;50.010;20.020;2023-05-25T04:14:49;99307.28;;;11.99;100.00
28008;BME280;15333;50.010;20.020;2023-05-25T04:17:51;99314.13;;;12.03;100.00
28008;BME280;15333;50.010;20.020;2023-05-25T04:20:52;99309.19;;;12.10;100.00
28008;BME280;15333;50.010;20.020;2023-05-25T04:23:56;99310.69;;;12.14;100.00
28008;BME280;15333;50.010;20.020;2023-05-25T04:26:57;99314.88;;;12.05;100.00
28008;BME280;15333;50.010;20.020;2023-05-25T04:29:58;99315.66;;;12.07;100.00
28008;BME280;15333;50.010;20.020;2023-05-25T04:33:22;99317.63;;;12.16;100.00
28008;BME280;15333;50.010;20.020;2023-05-25T04:36:33;99320.47;;;12.02;100.00
28008;BME280;15333;50.010;20.020;2023-05-25T04:39:37;99332.16;;;12.01;100.00
28008;BME280;15333;50.010;20.020;2023-05-25T04:42:41;99331.94;;;12.04;100.00
28008;BME280;15333;50.010;20.020;2023-05-25T04:45:43;99328.59;;;12.13;100.00
28008;BME280;15333;50.010;20.020;2023-05-25T04:48:46;99329.78;;;12.09;100.00
28008;BME280;15333;50.010;20.020;2023-05-25T04:51:47;99328.59;;;12.13;100.00
28008;BME280;15333;50.010;20.020;2023-05-25T04:54:49;99330.03;;;12.06;100.00
28008;BME280;15333;50.010;20.020;2023-05-25T04:57:53;99332.31;;;12.24;100.00
28008;BME280;15333;50.010;20.020;2023-05-25T05:00:55;99332.97;;;12.27;100.00
28008;BME280;15333;50.010;20.020;2023-05-25T05:03:57;99344.91;;;12.10;100.00
28008;BME280;15333;50.010;20.020;2023-05-25T05:06:58;99341.56;;;12.20;100.00
28008;BME280;15333;50.010;20.020;2023-05-25T05:10:01;99346.53;;;12.13;100.00
28008;BME280;15333;50.010;20.020;2023-05-25T05:13:03;99352.50;;;12.16;100.00
28008;BME280;15333;50.010;20.020;2023-05-25T05:16:04;99350.47;;;12.44;100.00
28008;BME280;15333;50.010;20.020;2023-05-25T05:19:05;99369.50;;;12.41;100.00
28008;BME280;15333;50.010;20.020;2023-05-25T05:22:06;99365.56;;;12.34;100.00
28008;BME280;15333;50.010;20.020;2023-05-25T05:25:09;99360.13;;;12.46;100.00
28008;BME280;15333;50.010;20.020;2023-05-25T05:28:10;99359.28;;;12.46;100.00
28008;BME280;15333;50.010;20.020;2023-05-25T05:31:14;99362.13;;;12.32;100.00
28008;BME280;15333;50.010;20.020;2023-05-25T05:34:17;99363.38;;;12.39;100.00
28008;BME280;15333;50.010;20.020;2023-05-25T05:37:19;99367.84;;;12.51;100.00
28008;BME280;15333;50.010;20.020;2023-05-25T05:40:20;99372.88;;;12.55;100.00
28008;BME280;15333;50.010;20.020;2023-05-25T05:43:21;99378.75;;;12.37;100.00
28008;BME280;15333;50.010;20.020;2023-05-25T05:46:22;99376.56;;;12.18;100.00
28008;BME280;15333;50.010;20.020;2023-05-25T05:49:25;99371.34;;;12.40;100.00
28008;BME280;15333;50.010;20.020;2023-05-25T05:52:26;99376.81;;;12.39;100.00
28008;BME280;15333;50.010;20.020;2023-05-25T05:55:28;99374.72;;;12.55;100.00
28008;BME280;15333;50.010;20.020;2023-05-25T05:58:29;99383.94;;;12.51;100.00
28008;BME280;15333;50.010;20.020;2023-05-25T06:01:32;99384.19;;;12.48;100.00
28008;BME280;15333;50.010;20.020;2023-05-25T06:04:33;99379.22;;;12.54;100.00
28008;BME280;15333;50.010;20.020;2023-05-25T06:07:34;99379.34;;;12.53;100.00
28008;BME280;15333;50.010;20.020;2023-05-25T06:10:37;99381.44;;;12.37;100.00
28008;BME280;15333;50.010;20.020;2023-05-25T06:13:38;99385.78;;;12.74;100.00
28008;BME280;15333;50.010;20.020;2023-05-25T06:16:39;99391.75;;;12.43;100.00
28008;BME280;15333;50.010;20.020;2023-05-25T06:19:41;99391.84;;;12.65;100.00
28008;BME280;15333;50.010;20.020;2023-05-25T06:22:41;99405.44;;;12.99;100.00
28008;BME280;15333;50.010;20.020;2023-05-25T06:25:43;99396.81;;;13.41;100.00
28008;BME280;15333;50.010;20.020;2023-05-25T06:28:44;99392.94;;;13.79;100.00
28008;BME280;15333;50.010;20.020;2023-05-25T06:31:47;99398.84;;;13.84;100.00
28008;BME280;15333;50.010;20.020;2023-05-25T06:34:48;99400.28;;;14.10;100.00
28008;BME280;15333;50.010;20.020;2023-05-25T06:37:49;99401.28;;;14.20;100.00
28008;BME280;15333;50.010;20.020;2023-05-25T06:40:52;99401.03;;;14.01;99.29
28008;BME280;15333;50.010;20.020;2023-05-25T06:43:53;99411.28;;;14.07;98.75
28008;BME280;15333;50.010;20.020;2023-05-25T06:47:13;99425.25;;;13.90;100.00
28008;BME280;15333;50.010;20.020;2023-05-25T06:50:15;99412.00;;;13.53;100.00
28008;BME280;15333;50.010;20.020;2023-05-25T06:53:16;99408.81;;;13.48;100.00
28008;BME280;15333;50.010;20.020;2023-05-25T06:56:18;99414.47;;;14.23;100.00
28008;BME280;15333;50.010;20.020;2023-05-25T06:59:19;99416.47;;;13.99;100.00
28008;BME280;15333;50.010;20.020;2023-05-25T07:02:20;99414.69;;;13.64;100.00
28008;BME280;15333;50.010;20.020;2023-05-25T07:05:21;99419.47;;;13.61;100.00
28008;BME280;15333;50.010;20.020;2023-05-25T07:08:22;99430.38;;;13.70;100.00
28008;BME280;15333;50.010;20.020;2023-05-25T07:11:22;99428.88;;;13.55;100.00
28008;BME280;15333;50.010;20.020;2023-05-25T07:14:24;99431.00;;;13.28;100.00
28008;BME280;15333;50.010;20.020;2023-05-25T07:17:24;99439.13;;;13.15;100.00
28008;BME280;15333;50.010;20.020;2023-05-25T07:20:26;99441.84;;;13.03;100.00
28008;BME280;15333;50.010;20.020;2023-05-25T07:23:27;99441.09;;;13.01;100.00
28008;BME280;15333;50.010;20.020;2023-05-25T07:26:29;99441.38;;;13.09;100.00
28008;BME280;15333;50.010;20.020;2023-05-25T07:29:31;99440.41;;;12.62;100.00
28008;BME280;15333;50.010;20.020;2023-05-25T07:32:32;99441.53;;;12.47;100.00
28008;BME280;15333;50.010;20.020;2023-05-25T07:35:33;99438.03;;;12.70;100.00
28008;BME280;15333;50.010;20.020;2023-05-25T07:38:35;99435.34;;;12.70;100.00
28008;BME280;15333;50.010;20.020;2023-05-25T07:41:37;99438.59;;;12.86;100.00
28008;BME280;15333;50.010;20.020;2023-05-25T07:44:38;99437.44;;;13.02;100.00
28008;BME280;15333;50.010;20.020;2023-05-25T07:47:39;99434.72;;;12.90;100.00
28008;BME280;15333;50.010;20.020;2023-05-25T07:50:40;99433.03;;;13.13;100.00
28008;BME280;15333;50.010;20.020;2023-05-25T07:53:41;99431.38;;;13.11;100.00
28008;BME280;15333;50.010;20.020;2023-05-25T07:56:42;99441.84;;;12.79;100.00
28008;BME280;15333;50.010;20.020;2023-05-25T07:59:43;99441.84;;;12.79;100.00
28008;BME280;15333;50.010;20.020;2023-05-25T08:02:44;99445.56;;;12.89;100.00
28008;BME280;15333;50.010;20.020;2023-05-25T08:05:46;99436.88;;;13.33;100.00
28008;BME280;15333;50.010;20.020;2023-05-25T08:08:47;99441.97;;;13.25;100.00
28008;BME280;15333;50.010;20.020;2023-05-25T08:11:49;99451.59;;;13.51;100.00
28008;BME280;15333;50.010;20.020;2023-05-25T08:14:50;99436.09;;;13.55;100.00
28008;BME280;15333;50.010;20.020;2023-05-25T08:17:51;99438.31;;;13.26;100.00
28008;BME280;15333;50.010;20.020;2023-05-25T08:20:52;99442.00;;;13.36;100.00
28008;BME280;15333;50.010;20.020;2023-05-25T08:23:54;99442.94;;;13.59;100.00
28008;BME280;15333;50.010;20.020;2023-05-25T08:26:55;99443.97;;;13.34;100.00
28008;BME280;15333;50.010;20.020;2023-05-25T08:29:56;99442.34;;;13.66;100.00
28008;BME280;15333;50.010;20.020;2023-05-25T08:32:57;99448.94;;;13.73;100.00
28008;BME280;15333;50.010;20.020;2023-05-25T08:35:58;99447.69;;;13.55;100.00
28008;BME280;15333;50.010;20.020;2023-05-25T08:38:59;99450.50;;;13.65;100.00
28008;BME280;15333;50.010;20.020;2023-05-25T08:42:00;99436.72;;;13.81;100.00
28008;BME280;15333;50.010;20.020;2023-05-25T08:45:01;99443.59;;;13.96;100.00
28008;BME280;15333;50.010;20.020;2023-05-25T08:48:07;99443.34;;;13.88;100.00
28008;BME280;15333;50.010;20.020;2023-05-25T08:51:12;99435.22;;;13.65;100.00
28008;BME280;15333;50.010;20.020;2023-05-25T08:54:28;99433.03;;;13.59;100.00
28008;BME280;15333;50.010;20.020;2023-05-25T08:57:57;99433.50;;;13.53;100.00
28008;BME280;15333;50.010;20.020;2023-05-25T09:01:03;99439.69;;;14.11;99.94
28008;BME280;15333;50.010;20.020;2023-05-25T09:04:07;99442.66;;;14.41;97.18
28008;BME280;15333;50.010;20.020;2023-05-25T09:07:09;99439.94;;;14.08;96.77
28008;BME280;15333;50.010;20.020;2023-05-25T09:10:10;99435.03;;;14.24;98.01
28008;BME280;15333;50.010;20.020;2023-05-25T09:13:12;99447.16;;;14.19;97.34
28008;BME280;15333;50.010;20.020;2023-05-25T09:16:15;99441.88;;;14.28;95.78
28008;BME280;15333;50.010;20.020;2023-05-25T09:19:15;99443.13;;;14.46;95.19
28008;BME280;15333;50.010;20.020;2023-05-25T09:22:16;99437.22;;;14.64;92.36
28008;BME280;15333;50.010;20.020;2023-05-25T09:25:18;99443.72;;;15.04;92.30
28008;BME280;15333;50.010;20.020;2023-05-25T09:28:22;99455.41;;;15.25;91.78
28008;BME280;15333;50.010;20.020;2023-05-25T09:31:23;99450.16;;;14.81;91.69
28008;BME280;15333;50.010;20.020;2023-05-25T09:34:29;99458.78;;;14.53;93.42
28008;BME280;15333;50.010;20.020;2023-05-25T09:37:34;99464.53;;;14.26;95.43
28008;BME280;15333;50.010;20.020;2023-05-25T09:40:37;99454.84;;;14.57;94.86
28008;BME280;15333;50.010;20.020;2023-05-25T09:43:37;99463.69;;;14.25;97.27
28008;BME280;15333;50.010;20.020;2023-05-25T09:46:39;99461.47;;;14.08;99.32
28008;BME280;15333;50.010;20.020;2023-05-25T09:49:40;99457.06;;;14.18;98.92
28008;BME280;15333;50.010;20.020;2023-05-25T09:52:42;99451.06;;;14.37;97.62
28008;BME280;15333;50.010;20.020;2023-05-25T09:55:43;99449.84;;;14.19;98.02
28008;BME280;15333;50.010;20.020;2023-05-25T09:58:44;99453.44;;;14.41;97.73
28008;BME280;15333;50.010;20.020;2023-05-25T10:01:50;99444.06;;;14.68;96.10
28008;BME280;15333;50.010;20.020;2023-05-25T10:04:51;99440.91;;;14.63;94.01
28008;BME280;15333;50.010;20.020;2023-05-25T10:07:52;99442.41;;;14.44;95.73
28008;BME280;15333;50.010;20.020;2023-05-25T10:10:54;99445.09;;;14.56;95.47
28008;BME280;15333;50.010;20.020;2023-05-25T10:13:55;99442.72;;;14.73;94.62
28008;BME280;15333;50.010;20.020;2023-05-25T10:17:02;99444.94;;;14.68;94.63
28008;BME280;15333;50.010;20.020;2023-05-25T10:20:06;99444.66;;;14.71;94.25
28008;BME280;15333;50.010;20.020;2023-05-25T10:23:10;99441.69;;;14.85;94.60
28008;BME280;15333;50.010;20.020;2023-05-25T10:26:20;99432.94;;;15.04;92.68
28008;BME280;15333;50.010;20.020;2023-05-25T10:29:21;99441.28;;;15.01;92.37
28008;BME280;15333;50.010;20.020;2023-05-25T10:32:24;99435.19;;;14.88;93.43
28008;BME280;15333;50.010;20.020;2023-05-25T10:35:27;99437.50;;;14.93;92.82
28008;BME280;15333;50.010;20.020;2023-05-25T10:38:30;99432.88;;;15.15;91.86
28008;BME280;15333;50.010;20.020;2023-05-25T10:41:31;99442.53;;;14.97;91.96
28008;BME280;15333;50.010;20.020;2023-05-25T10:44:32;99433.84;;;14.94;91.76
28008;BME280;15333;50.010;20.020;2023-05-25T10:47:39;99439.16;;;14.84;93.37
28008;BME280;15333;50.010;20.020;2023-05-25T10:50:49;99433.47;;;14.87;93.69
28008;BME280;15333;50.010;20.020;2023-05-25T10:53:59;99433.31;;;14.68;94.76
28008;BME280;15333;50.010;20.020;2023-05-25T10:57:11;99435.66;;;15.04;93.92
28008;BME280;15333;50.010;20.020;2023-05-25T11:00:14;99440.44;;;15.33;91.97
28008;BME280;15333;50.010;20.020;2023-05-25T11:03:15;99442.44;;;15.19;90.46
28008;BME280;15333;50.010;20.020;2023-05-25T11:06:22;99438.75;;;15.20;92.31
28008;BME280;15333;50.010;20.020;2023-05-25T11:09:27;99444.38;;;14.97;94.32
28008;BME280;15333;50.010;20.020;2023-05-25T11:12:30;99442.28;;;15.21;92.59
28008;BME280;15333;50.010;20.020;2023-05-25T11:15:31;99444.28;;;15.19;91.70
28008;BME280;15333;50.010;20.020;2023-05-25T11:21:52;99437.19;;;15.18;92.65
28008;BME280;15333;50.010;20.020;2023-05-25T11:24:57;99431.44;;;15.11;91.68
28008;BME280;15333;50.010;20.020;2023-05-25T11:28:01;99430.66;;;15.20;92.27
28008;BME280;15333;50.010;20.020;2023-05-25T11:31:04;99436.94;;;15.42;92.04
28008;BME280;15333;50.010;20.020;2023-05-25T11:34:06;99429.78;;;15.52;90.28
28008;BME280;15333;50.010;20.020;2023-05-25T11:37:07;99434.75;;;15.68;90.33
28008;BME280;15333;50.010;20.020;2023-05-25T11:40:09;99417.91;;;16.05;88.09
28008;BME280;15333;50.010;20.020;2023-05-25T11:43:11;99427.41;;;15.79;86.63
28008;BME280;15333;50.010;20.020;2023-05-25T11:46:12;99427.25;;;16.01;86.43
28008;BME280;15333;50.010;20.020;2023-05-25T11:49:14;99419.16;;;16.32;85.28
28008;BME280;15333;50.010;20.020;2023-05-25T11:52:16;99418.25;;;16.22;85.70
28008;BME280;15333;50.010;20.020;2023-05-25T11:55:18;99417.22;;;16.53;84.18
28008;BME280;15333;50.010;20.020;2023-05-25T11:58:19;99417.44;;;16.31;85.62
28008;BME280;15333;50.010;20.020;2023-05-25T12:01:21;99419.16;;;16.41;84.92
28008;BME280;15333;50.010;20.020;2023-05-25T12:04:23;99419.34;;;16.10;85.16
28008;BME280;15333;50.010;20.020;2023-05-25T12:07:25;99420.16;;;16.00;86.04
28008;BME280;15333;50.010;20.020;2023-05-25T12:10:25;99423.19;;;15.86;86.55
28008;BME280;15333;50.010;20.020;2023-05-25T12:13:26;99411.13;;;16.11;85.61
28008;BME280;15333;50.010;20.020;2023-05-25T12:16:29;99421.84;;;16.01;85.18
28008;BME280;15333;50.010;20.020;2023-05-25T12:19:30;99416.03;;;15.96;87.18
28008;BME280;15333;50.010;20.020;2023-05-25T12:22:32;99415.75;;;15.79;87.67
28008;BME280;15333;50.010;20.020;2023-05-25T12:25:33;99418.97;;;16.24;85.56
28008;BME280;15333;50.010;20.020;2023-05-25T12:28:34;99419.94;;;15.62;88.04
28008;BME280;15333;50.010;20.020;2023-05-25T12:31:36;99416.44;;;16.32;85.86
28008;BME280;15333;50.010;20.020;2023-05-25T12:34:38;99419.28;;;16.00;85.71
28008;BME280;15333;50.010;20.020;2023-05-25T12:37:39;99417.91;;;16.05;86.71
28008;BME280;15333;50.010;20.020;2023-05-25T12:40:40;99425.19;;;15.84;87.93
28008;BME280;15333;50.010;20.020;2023-05-25T12:43:41;99418.22;;;15.61;89.32
28008;BME280;15333;50.010;20.020;2023-05-25T12:46:43;99418.47;;;15.58;89.21
28008;BME280;15333;50.010;20.020;2023-05-25T12:49:47;99412.97;;;15.59;88.77
28008;BME280;15333;50.010;20.020;2023-05-25T12:52:50;99414.34;;;15.54;90.14
28008;BME280;15333;50.010;20.020;2023-05-25T12:56:02;99403.47;;;15.65;88.90
28008;BME280;15333;50.010;20.020;2023-05-25T12:59:15;99403.59;;;15.84;88.77
28008;BME280;15333;50.010;20.020;2023-05-25T13:02:16;99397.13;;;15.96;88.87
28008;BME280;15333;50.010;20.020;2023-05-25T13:08:21;99397.88;;;16.48;85.84
28008;BME280;15333;50.010;20.020;2023-05-25T13:11:23;99390.75;;;16.47;85.53
28008;BME280;15333;50.010;20.020;2023-05-25T13:14:25;99392.56;;;16.37;85.58
28008;BME280;15333;50.010;20.020;2023-05-25T13:17:26;99386.31;;;16.96;83.36
28008;BME280;15333;50.010;20.020;2023-05-25T13:20:27;99379.59;;;16.71;83.60
28008;BME280;15333;50.010;20.020;2023-05-25T13:23:32;99384.47;;;16.37;85.51
28008;BME280;15333;50.010;20.020;2023-05-25T13:26:33;99380.06;;;16.95;83.84
28008;BME280;15333;50.010;20.020;2023-05-25T13:29:33;99378.31;;;16.84;82.95
28008;BME280;15333;50.010;20.020;2023-05-25T13:32:35;99372.25;;;16.33;84.29
28008;BME280;15333;50.010;20.020;2023-05-25T13:35:35;99376.53;;;16.45;85.35
28008;BME280;15333;50.010;20.020;2023-05-25T13:38:57;99374.25;;;16.50;85.53
28008;BME280;15333;50.010;20.020;2023-05-25T13:41:58;99373.56;;;16.08;86.08
28008;BME280;15333;50.010;20.020;2023-05-25T13:44:59;99367.25;;;15.88;87.00
28008;BME280;15333;50.010;20.020;2023-05-25T13:48:00;99368.41;;;15.95;87.40
28008;BME280;15333;50.010;20.020;2023-05-25T13:51:01;99376.56;;;16.15;87.06
28008;BME280;15333;50.010;20.020;2023-05-25T13:54:03;99367.19;;;15.79;88.11
28008;BME280;15333;50.010;20.020;2023-05-25T13:57:04;99365.78;;;15.54;89.42
28008;BME280;15333;50.010;20.020;2023-05-25T14:00:07;99359.03;;;15.99;89.39
28008;BME280;15333;50.010;20.020;2023-05-25T14:03:09;99367.50;;;15.85;88.74
28008;BME280;15333;50.010;20.020;2023-05-25T14:06:10;99376.13;;;16.10;89.15
28008;BME280;15333;50.010;20.020;2023-05-25T14:09:11;99371.41;;;15.72;89.32
28008;BME280;15333;50.010;20.020;2023-05-25T14:12:12;99371.09;;;15.65;91.35
28008;BME280;15333;50.010;20.020;2023-05-25T14:15:13;99366.16;;;16.00;90.33
28008;BME280;15333;50.010;20.020;2023-05-25T14:18:14;99365.72;;;15.95;89.44
28008;BME280;15333;50.010;20.020;2023-05-25T14:21:15;99375.09;;;15.91;89.57
28008;BME280;15333;50.010;20.020;2023-05-25T14:24:16;99375.06;;;15.61;90.96
28008;BME280;15333;50.010;20.020;2023-05-25T14:27:17;99372.13;;;15.74;90.39
28008;BME280;15333;50.010;20.020;2023-05-25T14:30:20;99372.19;;;15.83;90.71
28008;BME280;15333;50.010;20.020;2023-05-25T14:33:21;99378.03;;;15.88;90.18
28008;BME280;15333;50.010;20.020;2023-05-25T14:36:22;99377.31;;;15.56;90.48
28008;BME280;15333;50.010;20.020;2023-05-25T14:39:24;99376.88;;;15.81;90.83
28008;BME280;15333;50.010;20.020;2023-05-25T14:42:26;99369.81;;;15.99;89.85
28008;BME280;15333;50.010;20.020;2023-05-25T14:45:27;99370.41;;;15.63;90.16
28008;BME280;15333;50.010;20.020;2023-05-25T14:48:27;99363.31;;;15.51;91.49
28008;BME280;15333;50.010;20.020;2023-05-25T14:51:28;99367.41;;;15.66;91.05
28008;BME280;15333;50.010;20.020;2023-05-25T14:54:29;99357.53;;;15.76;91.33
28008;BME280;15333;50.010;20.020;2023-05-25T14:57:30;99367.59;;;15.33;92.36
28008;BME280;15333;50.010;20.020;2023-05-25T15:00:31;99360.16;;;15.66;90.44
28008;BME280;15333;50.010;20.020;2023-05-25T15:03:32;99363.28;;;15.62;92.38
28008;BME280;15333;50.010;20.020;2023-05-25T15:06:33;99358.97;;;15.80;91.67
28008;BME280;15333;50.010;20.020;2023-05-25T15:09:34;99367.16;;;15.69;91.35
28008;BME280;15333;50.010;20.020;2023-05-25T15:12:36;99354.16;;;15.84;90.85
28008;BME280;15333;50.010;20.020;2023-05-25T15:15:37;99361.78;;;15.79;91.32
28008;BME280;15333;50.010;20.020;2023-05-25T15:18:37;99359.09;;;15.79;91.21
28008;BME280;15333;50.010;20.020;2023-05-25T15:21:38;99350.69;;;15.72;91.33
28008;BME280;15333;50.010;20.020;2023-05-25T15:24:39;99356.94;;;15.73;91.71
28008;BME280;15333;50.010;20.020;2023-05-25T15:27:40;99349.31;;;15.36;94.29
28008;BME280;15333;50.010;20.020;2023-05-25T15:30:41;99348.13;;;15.29;94.87
28008;BME280;15333;50.010;20.020;2023-05-25T15:33:42;99355.22;;;15.51;95.00
28008;BME280;15333;50.010;20.020;2023-05-25T15:36:43;99355.53;;;14.95;97.32
28008;BME280;15333;50.010;20.020;2023-05-25T15:39:44;99355.38;;;14.76;100.00
28008;BME280;15333;50.010;20.020;2023-05-25T15:42:45;99358.88;;;14.87;99.14
28008;BME280;15333;50.010;20.020;2023-05-25T15:45:46;99357.09;;;14.77;98.71
28008;BME280;15333;50.010;20.020;2023-05-25T15:48:47;99351.19;;;14.83;100.00
28008;BME280;15333;50.010;20.020;2023-05-25T15:51:48;99354.34;;;14.88;100.00
28008;BME280;15333;50.010;20.020;2023-05-25T15:54:48;99348.72;;;14.91;100.00
28008;BME280;15333;50.010;20.020;2023-05-25T15:57:49;99352.28;;;14.80;99.76
28008;BME280;15333;50.010;20.020;2023-05-25T16:00:50;99350.25;;;14.73;100.00